Time;durP1;ratioP1;P1;durP2;ratioP2;P2;SDS_P1;SDS_P2;PMS_P1;PMS_P2;Temp;Humidity;BMP_temperature;BMP_pressure;BME280_temperature;BME280_humidity;BME280_pressure;Samples;Min_cycle;Max_cycle;Signal;HPM_P1;HPM_P2
2024/03/21 00:01:41;;;;;;;7.05;3.03;;;;;;;;;;5047032;28;20111;-62
2024/03/21 00:04:08;;;;;;;5.55;3.22;;;;;;;;;;5048308;28;20464;-59
2024/03/21 00:06:35;;;;;;;5.47;3.53;;;;;;;;;;5047806;28;20098;-59
2024/03/21 00:09:04;;;;;;;5.20;3.03;;;;;;;;;;5047975;28;20560;-58
2024/03/21 00:11:30;;;;;;;5.65;3.08;;;;;;;;;;5048586;28;20055;-58
2024/03/21 00:13:58;;;;;;;3.15;2.60;;;;;;;;;;5044415;28;20049;-58
2024/03/21 00:16:24;;;;;;;3.92;2.88;;;;;;;;;;5045840;28;20064;-59
2024/03/21 00:18:51;;;;;;;6.65;2.97;;;;;;;;;;5047297;28;20353;-59
2024/03/21 00:21:18;;;;;;;3.60;2.67;;;;;;;;;;5046151;28;20045;-59
2024/03/21 00:23:45;;;;;;;6.75;3.30;;;;;;;;;;5042798;28;20452;-59
2024/03/21 00:26:14;;;;;;;5.15;2.78;;;;;;;;;;5045351;28;20051;-60
2024/03/21 00:28:41;;;;;;;3.85;3.28;;;;;;;;;;5047352;28;20060;-59
2024/03/21 00:31:08;;;;;;;4.75;3.10;;;;;;;;;;5046191;28;21221;-59
2024/03/21 00:33:35;;;;;;;3.95;2.72;;;;;;;;;;5047541;28;20075;-60
2024/03/21 00:36:02;;;;;;;3.83;2.55;;;;;;;;;;5047292;28;20053;-58
2024/03/21 00:38:29;;;;;;;3.85;2.83;;;;;;;;;;5047496;28;20382;-58
2024/03/21 00:40:55;;;;;;;6.47;2.53;;;;;;;;;;5046608;28;20110;-61
2024/03/21 00:43:24;;;;;;;3.70;2.65;;;;;;;;;;5046686;28;20490;-61
2024/03/21 00:45:51;;;;;;;3.35;2.70;;;;;;;;;;5045026;28;20130;-63
2024/03/21 00:48:19;;;;;;;3.97;2.83;;;;;;;;;;5046592;28;20520;-59
2024/03/21 00:50:45;;;;;;;3.92;3.00;;;;;;;;;;5046888;28;20061;-58
2024/03/21 00:53:13;;;;;;;3.83;2.67;;;;;;;;;;5043084;28;20053;-61
2024/03/21 00:55:39;;;;;;;4.82;3.00;;;;;;;;;;5041503;28;20048;-60
2024/03/21 00:58:07;;;;;;;4.95;3.03;;;;;;;;;;5040910;28;20053;-59
2024/03/21 01:00:35;;;;;;;3.92;2.90;;;;;;;;;;5046797;28;20286;-59
2024/03/21 01:03:03;;;;;;;4.72;2.70;;;;;;;;;;5047831;28;20106;-58
2024/03/21 01:05:29;;;;;;;4.70;3.03;;;;;;;;;;5047896;28;20057;-58
2024/03/21 01:07:57;;;;;;;4.38;2.88;;;;;;;;;;5046687;28;20378;-59
2024/03/21 01:10:23;;;;;;;3.45;2.70;;;;;;;;;;5046614;28;20049;-60
2024/03/21 01:12:50;;;;;;;6.05;3.78;;;;;;;;;;5045874;28;20182;-62
2024/03/21 01:15:18;;;;;;;3.72;3.00;;;;;;;;;;5047231;28;20052;-57
2024/03/21 01:17:47;;;;;;;5.47;3.25;;;;;;;;;;5046080;28;20057;-59
2024/03/21 01:20:13;;;;;;;5.53;3.53;;;;;;;;;;5046647;28;20060;-63
2024/03/21 01:22:41;;;;;;;4.85;3.00;;;;;;;;;;5045531;28;20536;-59
2024/03/21 01:25:08;;;;;;;6.20;3.17;;;;;;;;;;5060463;28;20060;-59
2024/03/21 01:27:35;;;;;;;4.05;2.83;;;;;;;;;;5046502;28;20118;-59
2024/03/21 01:30:02;;;;;;;3.80;2.88;;;;;;;;;;5046964;28;20095;-58
2024/03/21 01:32:29;;;;;;;5.03;2.90;;;;;;;;;;5041989;28;20045;-60
2024/03/21 01:34:57;;;;;;;5.13;3.03;;;;;;;;;;5046273;28;20072;-62
2024/03/21 01:37:24;;;;;;;7.38;3.60;;;;;;;;;;5046138;28;20055;-59
2024/03/21 01:39:51;;;;;;;4.00;2.72;;;;;;;;;;5046123;28;20049;-59
2024/03/21 01:42:19;;;;;;;3.75;2.67;;;;;;;;;;5045381;28;20521;-61
2024/03/21 01:44:58;;;;;;;5.25;2.88;;;;;;;;;;5046848;28;20057;-61
2024/03/21 01:47:26;;;;;;;3.53;2.58;;;;;;;;;;5044428;28;20048;-58
2024/03/21 01:49:52;;;;;;;8.40;2.90;;;;;;;;;;5041489;28;20045;-62
2024/03/21 01:52:21;;;;;;;4.53;2.53;;;;;;;;;;5046017;28;20441;-58
2024/03/21 01:54:48;;;;;;;3.83;2.78;;;;;;;;;;5046020;28;20072;-61
2024/03/21 01:57:16;;;;;;;4.03;2.60;;;;;;;;;;5038527;28;20080;-58
2024/03/21 01:59:43;;;;;;;6.15;3.17;;;;;;;;;;5046027;28;20075;-59
2024/03/21 02:02:11;;;;;;;6.35;3.10;;;;;;;;;;5042266;28;20041;-59
2024/03/21 02:04:37;;;;;;;3.58;2.47;;;;;;;;;;5046704;28;20052;-58
2024/03/21 02:07:05;;;;;;;7.05;3.10;;;;;;;;;;5045843;28;20036;-59
2024/03/21 02:09:33;;;;;;;6.68;2.90;;;;;;;;;;5045094;28;20044;-57
2024/03/21 02:12:07;;;;;;;5.95;2.90;;;;;;;;;;5046728;28;20045;-59
2024/03/21 02:14:34;;;;;;;5.15;2.97;;;;;;;;;;5045562;28;20068;-63
2024/03/21 02:17:02;;;;;;;4.32;2.95;;;;;;;;;;5037648;28;20053;-59
2024/03/21 02:19:28;;;;;;;6.47;3.10;;;;;;;;;;5043584;28;20052;-59
2024/03/21 02:24:25;;;;;;;3.78;2.70;;;;;;;;;;5097459;22;20049;-84
2024/03/21 02:26:51;;;;;;;4.15;2.90;;;;;;;;;;5071467;28;20052;-84
2024/03/21 02:29:19;;;;;;;4.55;2.85;;;;;;;;;;5079797;28;20421;-86
2024/03/21 02:31:46;;;;;;;4.78;3.10;;;;;;;;;;5072062;28;20063;-86
2024/03/21 02:34:13;;;;;;;4.53;3.00;;;;;;;;;;5073599;28;20059;-85
2024/03/21 02:36:40;;;;;;;3.55;2.35;;;;;;;;;;5069045;28;20044;-86
2024/03/21 02:39:07;;;;;;;4.00;2.72;;;;;;;;;;5070605;28;20505;-86
2024/03/21 02:41:35;;;;;;;4.55;2.80;;;;;;;;;;5071088;28;20049;-86
2024/03/21 02:44:03;;;;;;;4.50;2.80;;;;;;;;;;5074198;28;20056;-86
2024/03/21 02:46:29;;;;;;;3.88;2.70;;;;;;;;;;5069791;28;20543;-86
2024/03/21 02:48:57;;;;;;;4.15;2.55;;;;;;;;;;5081088;28;20126;-86
2024/03/21 02:51:23;;;;;;;3.60;2.47;;;;;;;;;;5072101;28;20056;-86
2024/03/21 02:53:51;;;;;;;3.17;2.50;;;;;;;;;;5074475;28;20048;-86
2024/03/21 02:56:17;;;;;;;5.80;2.95;;;;;;;;;;5072848;28;20098;-86
2024/03/21 02:58:46;;;;;;;5.53;3.10;;;;;;;;;;5071138;28;20097;-84
2024/03/21 03:01:13;;;;;;;4.38;2.53;;;;;;;;;;5061997;28;20049;-86
2024/03/21 03:03:40;;;;;;;2.83;2.20;;;;;;;;;;5056383;28;20485;-85
2024/03/21 03:06:08;;;;;;;3.35;2.70;;;;;;;;;;5054788;28;20473;-86
2024/03/21 03:08:36;;;;;;;3.70;2.40;;;;;;;;;;5054969;28;20060;-86
2024/03/21 03:11:02;;;;;;;3.75;2.78;;;;;;;;;;5054483;28;20056;-87
2024/03/21 03:13:30;;;;;;;4.78;2.45;;;;;;;;;;5057893;28;20053;-87
2024/03/21 03:15:58;;;;;;;3.25;2.40;;;;;;;;;;5054061;28;20057;-86
2024/03/21 03:18:25;;;;;;;4.43;2.42;;;;;;;;;;5056818;28;20098;-86
2024/03/21 03:20:52;;;;;;;4.60;2.17;;;;;;;;;;5056617;28;20068;-86
2024/03/21 03:23:20;;;;;;;7.90;2.50;;;;;;;;;;5055537;28;20056;-87
2024/03/21 03:25:46;;;;;;;3.05;2.40;;;;;;;;;;5053963;28;20513;-87
2024/03/21 03:28:14;;;;;;;3.38;2.05;;;;;;;;;;5059045;28;20041;-86
2024/03/21 03:30:40;;;;;;;3.88;2.53;;;;;;;;;;5051200;28;20037;-86
2024/03/21 03:35:51;;;;;;;3.38;1.83;;;;;;;;;;5050868;28;20414;-87
2024/03/21 03:38:18;;;;;;;2.47;2.10;;;;;;;;;;5051536;28;20048;-87
2024/03/21 03:40:46;;;;;;;3.47;2.20;;;;;;;;;;5052746;28;20041;-86
2024/03/21 03:43:13;;;;;;;2.30;1.88;;;;;;;;;;5051514;28;20052;-87
2024/03/21 03:45:41;;;;;;;3.35;2.15;;;;;;;;;;5052153;28;20053;-86
2024/03/21 03:48:10;;;;;;;2.60;1.98;;;;;;;;;;5052914;28;20059;-85
2024/03/21 03:50:38;;;;;;;2.35;1.90;;;;;;;;;;5054500;28;20441;-87
2024/03/21 03:53:05;;;;;;;3.83;2.30;;;;;;;;;;5055816;28;20049;-87
2024/03/21 03:55:32;;;;;;;5.05;2.20;;;;;;;;;;5051851;28;20406;-86
2024/03/21 03:58:00;;;;;;;3.05;2.20;;;;;;;;;;5050637;28;20450;-87
2024/03/21 04:00:26;;;;;;;5.35;2.15;;;;;;;;;;5052431;28;20057;-86
2024/03/21 04:02:54;;;;;;;3.47;2.15;;;;;;;;;;5052937;28;20452;-87
2024/03/21 04:05:22;;;;;;;2.38;1.75;;;;;;;;;;5063368;28;20049;-87
2024/03/21 04:07:49;;;;;;;6.35;2.40;;;;;;;;;;5050753;28;20410;-86
2024/03/21 04:10:16;;;;;;;3.92;2.33;;;;;;;;;;5051018;28;20438;-86
2024/03/21 04:12:43;;;;;;;3.05;1.98;;;;;;;;;;5050903;28;20569;-87
2024/03/21 04:15:10;;;;;;;2.22;1.80;;;;;;;;;;5057140;28;20057;-87
2024/03/21 04:17:38;;;;;;;2.92;2.03;;;;;;;;;;5054046;28;20410;-87
2024/03/21 04:20:06;;;;;;;5.38;1.92;;;;;;;;;;5050323;28;20060;-87
2024/03/21 04:22:35;;;;;;;3.15;2.25;;;;;;;;;;5050682;28;20556;-86
2024/03/21 04:25:03;;;;;;;3.55;2.00;;;;;;;;;;5050847;28;20452;-87
2024/03/21 04:27:30;;;;;;;2.33;1.83;;;;;;;;;;5050713;28;20505;-87
2024/03/21 04:29:58;;;;;;;2.83;1.90;;;;;;;;;;5050946;28;20056;-87
2024/03/21 04:32:26;;;;;;;2.10;1.80;;;;;;;;;;5048763;28;20472;-87
2024/03/21 04:34:53;;;;;;;3.58;2.17;;;;;;;;;;5049780;28;20048;-86
2024/03/21 04:37:20;;;;;;;3.25;2.03;;;;;;;;;;5047139;28;20391;-86
2024/03/21 04:39:49;;;;;;;2.72;1.70;;;;;;;;;;5047937;28;20422;-87
2024/03/21 04:42:17;;;;;;;4.82;2.22;;;;;;;;;;5049310;28;20114;-87
2024/03/21 04:44:45;;;;;;;2.40;1.80;;;;;;;;;;5051592;28;20452;-86
2024/03/21 04:47:13;;;;;;;2.85;1.90;;;;;;;;;;5047559;28;20053;-87
2024/03/21 04:49:41;;;;;;;2.65;1.67;;;;;;;;;;5044936;28;20065;-85
2024/03/21 04:52:07;;;;;;;3.35;2.10;;;;;;;;;;5046719;28;20052;-86
2024/03/21 04:54:35;;;;;;;2.08;1.75;;;;;;;;;;5051876;28;20052;-86
2024/03/21 04:57:03;;;;;;;2.55;1.63;;;;;;;;;;5045420;28;20469;-87
2024/03/21 04:59:30;;;;;;;2.20;1.60;;;;;;;;;;5047824;28;20063;-87
2024/03/21 05:01:57;;;;;;;2.45;1.83;;;;;;;;;;5051366;28;20056;-86
2024/03/21 05:04:24;;;;;;;2.70;1.73;;;;;;;;;;5047012;28;20049;-86
2024/03/21 05:06:52;;;;;;;3.03;1.90;;;;;;;;;;5046659;28;20090;-84
2024/03/21 05:09:20;;;;;;;1.98;1.73;;;;;;;;;;5048225;28;20060;-87
2024/03/21 05:11:46;;;;;;;2.53;1.80;;;;;;;;;;5048830;28;20060;-87
2024/03/21 05:14:15;;;;;;;3.65;1.90;;;;;;;;;;5048786;28;20053;-86
2024/03/21 05:16:43;;;;;;;3.63;1.90;;;;;;;;;;5047534;28;20049;-87
2024/03/21 05:19:11;;;;;;;2.42;1.75;;;;;;;;;;5049718;28;20048;-86
2024/03/21 05:21:37;;;;;;;3.17;1.58;;;;;;;;;;5048504;28;20064;-87
2024/03/21 05:24:05;;;;;;;2.25;1.67;;;;;;;;;;5053496;28;20048;-87
2024/03/21 05:26:32;;;;;;;1.88;1.63;;;;;;;;;;5049675;28;20197;-87
2024/03/21 05:28:59;;;;;;;2.95;1.67;;;;;;;;;;5047706;28;20524;-87
2024/03/21 05:31:27;;;;;;;2.42;1.63;;;;;;;;;;5045896;28;20049;-87
2024/03/21 05:33:55;;;;;;;2.28;1.60;;;;;;;;;;5047689;28;20406;-87
2024/03/21 05:36:21;;;;;;;2.63;1.65;;;;;;;;;;5050162;28;20055;-86
2024/03/21 05:38:49;;;;;;;1.77;1.55;;;;;;;;;;5050088;28;20414;-86
2024/03/21 05:41:15;;;;;;;3.08;1.52;;;;;;;;;;5048618;28;20410;-86
2024/03/21 05:43:43;;;;;;;2.35;1.65;;;;;;;;;;5048411;28;20049;-87
2024/03/21 05:46:10;;;;;;;2.55;1.60;;;;;;;;;;5049739;28;20049;-87
2024/03/21 05:48:39;;;;;;;2.10;1.55;;;;;;;;;;5050537;28;20037;-87
2024/03/21 05:51:05;;;;;;;2.42;1.80;;;;;;;;;;5041266;28;20040;-87
2024/03/21 05:53:33;;;;;;;2.03;1.83;;;;;;;;;;5045752;28;20055;-87
2024/03/21 05:56:00;;;;;;;4.55;1.88;;;;;;;;;;5044232;28;20060;-85
2024/03/21 05:58:27;;;;;;;1.70;1.33;;;;;;;;;;5054372;28;20557;-86
2024/03/21 06:00:55;;;;;;;2.15;1.42;;;;;;;;;;5050354;28;20406;-86
2024/03/21 06:03:22;;;;;;;1.95;1.60;;;;;;;;;;5055992;28;20048;-86
2024/03/21 06:05:50;;;;;;;3.42;1.42;;;;;;;;;;5053314;28;20057;-86
2024/03/21 06:08:18;;;;;;;2.05;1.58;;;;;;;;;;5051052;28;20049;-87
2024/03/21 06:10:44;;;;;;;2.05;1.70;;;;;;;;;;5050650;28;20136;-87
2024/03/21 06:13:12;;;;;;;2.17;1.55;;;;;;;;;;5061585;28;20322;-88
2024/03/21 06:15:38;;;;;;;1.75;1.40;;;;;;;;;;5048896;28;20417;-87
2024/03/21 06:18:06;;;;;;;2.25;1.55;;;;;;;;;;5055847;28;20053;-88
2024/03/21 06:20:32;;;;;;;3.70;1.40;;;;;;;;;;5049069;28;20060;-87
2024/03/21 06:23:01;;;;;;;1.50;1.10;;;;;;;;;;5050617;28;20061;-86
2024/03/21 06:25:28;;;;;;;4.68;1.60;;;;;;;;;;5052873;28;20056;-85
2024/03/21 06:27:55;;;;;;;2.10;1.40;;;;;;;;;;5050023;28;20056;-85
2024/03/21 06:30:22;;;;;;;3.28;1.52;;;;;;;;;;5050634;28;20061;-85
2024/03/21 06:32:49;;;;;;;3.20;1.33;;;;;;;;;;5050558;28;20409;-85
2024/03/21 06:35:16;;;;;;;4.68;1.55;;;;;;;;;;5051571;28;20687;-85
2024/03/21 06:37:43;;;;;;;4.70;1.65;;;;;;;;;;5048613;28;20045;-85
2024/03/21 06:40:12;;;;;;;4.20;1.70;;;;;;;;;;5049888;28;20347;-86
2024/03/21 06:42:40;;;;;;;3.33;1.70;;;;;;;;;;5050255;28;20079;-85
2024/03/21 06:45:06;;;;;;;2.60;1.50;;;;;;;;;;5059129;28;20098;-85
2024/03/21 06:47:34;;;;;;;2.92;1.50;;;;;;;;;;5050003;28;20049;-85
2024/03/21 06:50:01;;;;;;;2.75;1.50;;;;;;;;;;5043707;28;20049;-87
2024/03/21 06:52:28;;;;;;;4.53;1.30;;;;;;;;;;5059464;28;20065;-84
2024/03/21 06:54:55;;;;;;;1.65;1.23;;;;;;;;;;5058793;28;20067;-86
2024/03/21 06:57:25;;;;;;;1.80;1.10;;;;;;;;;;5049545;28;20512;-86
2024/03/21 06:59:52;;;;;;;1.55;1.10;;;;;;;;;;5060176;28;20118;-85
2024/03/21 07:02:19;;;;;;;3.38;1.10;;;;;;;;;;5052452;28;20041;-86
2024/03/21 07:04:46;;;;;;;2.55;1.20;;;;;;;;;;5058294;28;20036;-85
2024/03/21 07:07:14;;;;;;;2.22;1.17;;;;;;;;;;5046276;28;20060;-86
2024/03/21 07:09:40;;;;;;;1.85;1.23;;;;;;;;;;5050778;28;20057;-86
2024/03/21 07:12:08;;;;;;;1.75;1.08;;;;;;;;;;5051859;28;20111;-84
2024/03/21 07:14:36;;;;;;;1.30;0.85;;;;;;;;;;5057222;28;20060;-85
2024/03/21 07:17:04;;;;;;;1.45;0.90;;;;;;;;;;5052607;28;20045;-87
2024/03/21 07:19:33;;;;;;;1.30;1.00;;;;;;;;;;5044302;28;20044;-87
2024/03/21 07:22:01;;;;;;;2.97;1.10;;;;;;;;;;5056923;28;20049;-85
2024/03/21 07:24:28;;;;;;;1.25;1.10;;;;;;;;;;5054532;28;20060;-87
2024/03/21 07:26:55;;;;;;;1.60;1.20;;;;;;;;;;5048597;28;20049;-86
2024/03/21 07:29:22;;;;;;;1.60;1.10;;;;;;;;;;5043990;28;20053;-84
2024/03/21 07:31:51;;;;;;;1.20;0.88;;;;;;;;;;5054332;28;20506;-86
2024/03/21 07:34:18;;;;;;;1.20;1.00;;;;;;;;;;5054961;28;20470;-87
2024/03/21 07:36:46;;;;;;;1.58;1.27;;;;;;;;;;5053306;28;20037;-86
2024/03/21 07:39:13;;;;;;;2.55;1.20;;;;;;;;;;5051912;28;20057;-86
2024/03/21 07:41:41;;;;;;;0.95;0.77;;;;;;;;;;5045651;28;20041;-88
2024/03/21 07:44:09;;;;;;;1.40;0.90;;;;;;;;;;5047792;28;20391;-87
2024/03/21 07:46:36;;;;;;;1.27;1.08;;;;;;;;;;5047441;28;20048;-87
2024/03/21 07:49:07;;;;;;;2.65;1.10;;;;;;;;;;5042948;28;20494;-87
2024/03/21 07:51:34;;;;;;;4.88;1.30;;;;;;;;;;5052263;28;20498;-83
2024/03/21 07:54:01;;;;;;;2.35;1.20;;;;;;;;;;5048446;28;20049;-85
2024/03/21 07:56:28;;;;;;;1.00;0.90;;;;;;;;;;5047796;28;21483;-87
2024/03/21 07:58:54;;;;;;;1.30;1.05;;;;;;;;;;5048687;28;20106;-86
2024/03/21 08:01:24;;;;;;;2.70;1.30;;;;;;;;;;5049226;28;20052;-84
2024/03/21 08:03:51;;;;;;;1.63;1.30;;;;;;;;;;5050448;28;20409;-85
2024/03/21 08:06:20;;;;;;;1.35;1.08;;;;;;;;;;5047111;28;20052;-85
2024/03/21 08:08:47;;;;;;;2.55;1.27;;;;;;;;;;5049755;28;20053;-86
2024/03/21 08:11:14;;;;;;;3.47;1.30;;;;;;;;;;5049412;28;20308;-86
2024/03/21 08:13:41;;;;;;;1.77;1.27;;;;;;;;;;5049255;28;20057;-87
2024/03/21 08:16:09;;;;;;;1.52;1.05;;;;;;;;;;5048964;28;20048;-85
2024/03/21 08:18:35;;;;;;;1.05;0.95;;;;;;;;;;5052787;28;20045;-85
2024/03/21 08:21:04;;;;;;;3.88;1.42;;;;;;;;;;5047839;28;20056;-84
2024/03/21 08:23:31;;;;;;;2.35;1.27;;;;;;;;;;5047887;28;20057;-87
2024/03/21 08:26:03;;;;;;;2.03;1.27;;;;;;;;;;5050171;28;20049;-84
2024/03/21 08:28:30;;;;;;;3.95;1.40;;;;;;;;;;5049181;28;20059;-86
2024/03/21 08:30:57;;;;;;;2.15;1.38;;;;;;;;;;5048130;28;20551;-88
2024/03/21 08:33:24;;;;;;;2.72;1.23;;;;;;;;;;5051471;28;20053;-85
2024/03/21 08:35:54;;;;;;;1.67;1.13;;;;;;;;;;5038345;28;20064;-86
2024/03/21 08:38:20;;;;;;;1.50;1.00;;;;;;;;;;5028023;28;20096;-86
2024/03/21 08:40:53;;;;;;;4.25;1.35;;;;;;;;;;5029690;28;20072;-89
2024/03/21 08:43:19;;;;;;;1.30;1.10;;;;;;;;;;5027812;28;20053;-86
2024/03/21 08:45:47;;;;;;;1.88;1.38;;;;;;;;;;5029158;28;20061;-85
2024/03/21 08:48:14;;;;;;;3.83;1.40;;;;;;;;;;5030015;28;20060;-86
2024/03/21 08:50:44;;;;;;;2.28;1.50;;;;;;;;;;5027335;28;20053;-85
2024/03/21 08:53:10;;;;;;;1.83;1.27;;;;;;;;;;5028650;28;20061;-87
2024/03/21 08:55:38;;;;;;;2.50;1.33;;;;;;;;;;5031479;28;20053;-87
2024/03/21 08:58:06;;;;;;;2.35;1.30;;;;;;;;;;5018905;28;20472;-85
2024/03/21 09:00:34;;;;;;;1.85;0.90;;;;;;;;;;5027367;28;20061;-87
2024/03/21 09:03:01;;;;;;;3.28;1.10;;;;;;;;;;5028722;28;20461;-86
2024/03/21 09:05:28;;;;;;;3.95;1.08;;;;;;;;;;5029168;28;20422;-82
2024/03/21 09:07:55;;;;;;;4.03;1.17;;;;;;;;;;5028309;28;20049;-89
2024/03/21 09:10:22;;;;;;;1.05;0.98;;;;;;;;;;5028268;28;20050;-86
2024/03/21 09:12:49;;;;;;;1.67;1.00;;;;;;;;;;5028452;28;20407;-87
2024/03/21 09:15:18;;;;;;;3.88;1.15;;;;;;;;;;5036494;28;20477;-87
2024/03/21 09:17:45;;;;;;;8.05;1.42;;;;;;;;;;5027012;28;20372;-88
2024/03/21 09:20:13;;;;;;;1.92;1.30;;;;;;;;;;5027988;28;20060;-86
2024/03/21 09:22:40;;;;;;;3.38;1.58;;;;;;;;;;5028173;28;20111;-84
2024/03/21 09:25:07;;;;;;;1.73;1.10;;;;;;;;;;5025880;28;20049;-84
2024/03/21 09:27:34;;;;;;;1.95;1.25;;;;;;;;;;5026603;28;20419;-85
2024/03/21 09:30:02;;;;;;;2.40;1.00;;;;;;;;;;5028152;28;20053;-86
2024/03/21 09:32:30;;;;;;;2.50;1.30;;;;;;;;;;5035476;28;20482;-82
2024/03/21 09:34:58;;;;;;;1.35;1.20;;;;;;;;;;5033880;28;20403;-84
2024/03/21 09:37:24;;;;;;;2.15;1.40;;;;;;;;;;5035874;28;20114;-84
2024/03/21 09:39:52;;;;;;;2.30;1.40;;;;;;;;;;5034602;28;20414;-84
2024/03/21 09:42:20;;;;;;;2.63;1.40;;;;;;;;;;5026382;28;20071;-84
2024/03/21 09:44:49;;;;;;;2.83;1.90;;;;;;;;;;5042313;28;20052;-85
2024/03/21 09:47:19;;;;;;;3.00;1.75;;;;;;;;;;5040271;28;20065;-83
2024/03/21 09:49:49;;;;;;;2.15;1.40;;;;;;;;;;5034259;28;20061;-84
2024/03/21 09:52:15;;;;;;;3.00;1.75;;;;;;;;;;5032557;28;20042;-83
2024/03/21 09:54:43;;;;;;;2.60;1.60;;;;;;;;;;5037672;28;20256;-86
2024/03/21 09:57:12;;;;;;;2.45;1.80;;;;;;;;;;5033837;28;20068;-85
2024/03/21 09:59:39;;;;;;;2.92;1.58;;;;;;;;;;5035159;28;20061;-84
2024/03/21 10:02:09;;;;;;;1.58;1.40;;;;;;;;;;5032235;28;20107;-86
2024/03/21 10:04:41;;;;;;;2.38;1.60;;;;;;;;;;5034328;28;20463;-85
2024/03/21 10:07:18;;;;;;;2.55;1.80;;;;;;;;;;5033627;28;20457;-86
2024/03/21 10:09:52;;;;;;;2.70;1.58;;;;;;;;;;5034672;28;20053;-83
2024/03/21 10:12:19;;;;;;;1.92;1.63;;;;;;;;;;5034725;28;20049;-83
2024/03/21 10:14:47;;;;;;;5.15;1.95;;;;;;;;;;5032503;28;20102;-83
2024/03/21 10:17:13;;;;;;;3.00;1.95;;;;;;;;;;5037716;28;20045;-84
2024/03/21 10:19:41;;;;;;;3.70;1.70;;;;;;;;;;5040641;28;20337;-83
2024/03/21 10:22:13;;;;;;;2.88;1.92;;;;;;;;;;5037636;28;20040;-86
2024/03/21 10:24:42;;;;;;;4.35;1.92;;;;;;;;;;5038052;28;20056;-87
2024/03/21 10:27:12;;;;;;;2.95;1.63;;;;;;;;;;5033176;28;20079;-84
2024/03/21 10:29:39;;;;;;;2.20;1.58;;;;;;;;;;5032714;28;20490;-84
2024/03/21 10:32:06;;;;;;;3.25;1.90;;;;;;;;;;5035875;28;20064;-85
2024/03/21 10:34:34;;;;;;;4.45;2.03;;;;;;;;;;5036186;28;20052;-83
2024/03/21 10:37:01;;;;;;;2.08;1.60;;;;;;;;;;5033167;28;20551;-82
2024/03/21 10:39:28;;;;;;;3.92;1.73;;;;;;;;;;5033697;28;20061;-84
2024/03/21 10:41:56;;;;;;;2.90;1.92;;;;;;;;;;5036096;28;20054;-84
2024/03/21 10:44:24;;;;;;;2.13;1.80;;;;;;;;;;5032682;28;20057;-84
2024/03/21 10:46:51;;;;;;;2.60;1.75;;;;;;;;;;5029473;28;20053;-85
2024/03/21 10:49:19;;;;;;;3.30;1.75;;;;;;;;;;5030696;28;20041;-86
2024/03/21 10:51:45;;;;;;;2.65;1.95;;;;;;;;;;5030385;28;20482;-84
2024/03/21 10:54:16;;;;;;;3.35;1.50;;;;;;;;;;5031859;28;20042;-85
2024/03/21 10:56:42;;;;;;;1.85;1.40;;;;;;;;;;5027245;28;20052;-84
2024/03/21 10:59:16;;;;;;;4.88;1.63;;;;;;;;;;5036088;28;20057;-84
2024/03/21 11:01:44;;;;;;;2.90;1.67;;;;;;;;;;5028578;28;20053;-84
2024/03/21 11:04:12;;;;;;;2.85;1.60;;;;;;;;;;5029833;28;20046;-85
2024/03/21 11:06:40;;;;;;;4.53;1.92;;;;;;;;;;5028635;28;20045;-85
2024/03/21 11:09:08;;;;;;;2.05;1.60;;;;;;;;;;5028590;28;20386;-84
2024/03/21 11:11:35;;;;;;;2.42;1.77;;;;;;;;;;5028076;28;20049;-86
2024/03/21 11:14:03;;;;;;;4.50;1.70;;;;;;;;;;5031111;28;20054;-84
2024/03/21 11:16:31;;;;;;;1.98;1.42;;;;;;;;;;5032346;28;20048;-86
2024/03/21 11:18:59;;;;;;;3.28;1.77;;;;;;;;;;5048274;28;20057;-85
2024/03/21 11:21:26;;;;;;;2.58;1.35;;;;;;;;;;5028678;28;20060;-84
2024/03/21 11:23:53;;;;;;;2.63;1.58;;;;;;;;;;5034136;28;20112;-84
2024/03/21 11:26:20;;;;;;;4.47;1.60;;;;;;;;;;5033325;28;20045;-86
2024/03/21 11:28:50;;;;;;;2.72;1.77;;;;;;;;;;5030826;28;20057;-85
2024/03/21 11:31:20;;;;;;;1.90;1.48;;;;;;;;;;5030255;28;20445;-85
2024/03/21 11:33:50;;;;;;;3.03;1.70;;;;;;;;;;5032989;28;20064;-84
2024/03/21 11:36:17;;;;;;;2.80;1.75;;;;;;;;;;5033789;28;20065;-85
2024/03/21 11:38:45;;;;;;;3.15;1.85;;;;;;;;;;5034723;28;20045;-84
2024/03/21 11:41:18;;;;;;;1.95;1.50;;;;;;;;;;5032846;28;20041;-84
2024/03/21 11:43:47;;;;;;;3.03;1.80;;;;;;;;;;5030482;28;20049;-83
2024/03/21 11:46:14;;;;;;;4.10;1.52;;;;;;;;;;5025968;28;20053;-84
2024/03/21 11:48:41;;;;;;;2.85;1.63;;;;;;;;;;5031224;28;20050;-84
2024/03/21 11:51:15;;;;;;;2.90;1.58;;;;;;;;;;5031743;28;20041;-84
2024/03/21 11:53:42;;;;;;;2.42;1.75;;;;;;;;;;5031312;28;20096;-85
2024/03/21 11:56:08;;;;;;;3.58;1.55;;;;;;;;;;5028064;28;20111;-84
2024/03/21 11:58:36;;;;;;;1.85;1.55;;;;;;;;;;5028598;28;20143;-83
2024/03/21 12:01:03;;;;;;;1.88;1.40;;;;;;;;;;5029269;28;20061;-84
2024/03/21 12:03:30;;;;;;;2.45;1.60;;;;;;;;;;5031340;28;20045;-85
2024/03/21 12:05:57;;;;;;;3.38;1.40;;;;;;;;;;5029854;28;20061;-85
2024/03/21 12:08:25;;;;;;;3.17;1.75;;;;;;;;;;5028694;28;20498;-85
2024/03/21 12:10:52;;;;;;;2.22;1.48;;;;;;;;;;5030538;28;20103;-88
2024/03/21 12:13:20;;;;;;;2.13;1.50;;;;;;;;;;5033509;28;20041;-86
2024/03/21 12:15:47;;;;;;;2.92;1.73;;;;;;;;;;5037390;28;20044;-86
2024/03/21 12:18:15;;;;;;;3.45;1.98;;;;;;;;;;5034138;28;20537;-86
2024/03/21 12:20:42;;;;;;;3.38;1.30;;;;;;;;;;5028615;28;20046;-88
2024/03/21 12:23:10;;;;;;;3.17;1.70;;;;;;;;;;5030471;28;20065;-85
2024/03/21 12:25:39;;;;;;;2.53;1.50;;;;;;;;;;5031558;28;20172;-85
2024/03/21 12:28:07;;;;;;;2.35;1.70;;;;;;;;;;5025390;28;20034;-85
2024/03/21 12:30:37;;;;;;;3.53;1.73;;;;;;;;;;5028643;28;20056;-83
2024/03/21 12:33:07;;;;;;;3.13;1.80;;;;;;;;;;5028435;28;20058;-84
2024/03/21 12:35:34;;;;;;;2.55;1.80;;;;;;;;;;5025624;28;20061;-85
2024/03/21 12:38:02;;;;;;;2.92;1.80;;;;;;;;;;5027212;28;20052;-84
2024/03/21 12:40:29;;;;;;;5.85;2.40;;;;;;;;;;5025739;28;20411;-85
2024/03/21 12:42:58;;;;;;;2.30;1.90;;;;;;;;;;5028949;28;20061;-84
2024/03/21 12:45:25;;;;;;;5.78;2.17;;;;;;;;;;5028298;28;20042;-84
2024/03/21 12:47:52;;;;;;;4.90;2.10;;;;;;;;;;5028456;28;20038;-85
2024/03/21 12:50:19;;;;;;;3.90;2.15;;;;;;;;;;5026975;28;20052;-86
2024/03/21 12:52:46;;;;;;;3.58;2.20;;;;;;;;;;5026766;28;20049;-86
2024/03/21 12:55:13;;;;;;;2.70;2.00;;;;;;;;;;5029663;28;20060;-86
2024/03/21 12:57:40;;;;;;;3.22;2.20;;;;;;;;;;5027839;28;20411;-88
2024/03/21 13:00:09;;;;;;;7.15;2.75;;;;;;;;;;5028074;28;20493;-86
2024/03/21 13:02:37;;;;;;;6.30;2.65;;;;;;;;;;5027337;28;20049;-86
2024/03/21 13:05:04;;;;;;;3.22;2.30;;;;;;;;;;5030429;28;20065;-84
2024/03/21 13:07:32;;;;;;;3.40;2.17;;;;;;;;;;5029290;28;20053;-85
2024/03/21 13:09:59;;;;;;;4.90;2.50;;;;;;;;;;5029272;28;20049;-86
2024/03/21 13:12:26;;;;;;;5.75;2.67;;;;;;;;;;5030165;28;20060;-88
2024/03/21 13:14:53;;;;;;;4.55;2.63;;;;;;;;;;5031803;28;20422;-86
2024/03/21 13:17:22;;;;;;;4.88;2.90;;;;;;;;;;5024361;28;20045;-84
2024/03/21 13:19:49;;;;;;;3.47;2.75;;;;;;;;;;5027882;28;20057;-89
2024/03/21 13:22:17;;;;;;;4.43;3.22;;;;;;;;;;5015590;28;20049;-88
2024/03/21 13:24:43;;;;;;;4.28;3.33;;;;;;;;;;5028648;28;20057;-85
2024/03/21 13:27:11;;;;;;;5.65;3.17;;;;;;;;;;5024493;28;20049;-86
2024/03/21 13:29:37;;;;;;;6.47;3.67;;;;;;;;;;5027986;28;20403;-86
2024/03/21 13:32:05;;;;;;;6.43;3.70;;;;;;;;;;5020571;28;20053;-84
2024/03/21 13:34:33;;;;;;;6.20;3.35;;;;;;;;;;5015634;28;20461;-88
2024/03/21 13:37:00;;;;;;;4.18;3.42;;;;;;;;;;5027139;28;20076;-87
2024/03/21 13:39:27;;;;;;;4.35;3.40;;;;;;;;;;5028171;28;20061;-86
2024/03/21 13:41:55;;;;;;;4.13;3.17;;;;;;;;;;5021847;28;20270;-86
2024/03/21 13:44:22;;;;;;;6.57;3.85;;;;;;;;;;5018533;28;20054;-84
2024/03/21 13:46:50;;;;;;;4.57;3.17;;;;;;;;;;5026713;28;20416;-85
2024/03/21 13:49:19;;;;;;;5.22;3.55;;;;;;;;;;5026158;28;20064;-85
2024/03/21 13:51:48;;;;;;;6.93;3.60;;;;;;;;;;5029102;28;20119;-88
2024/03/21 13:54:16;;;;;;;4.95;3.42;;;;;;;;;;5025843;28;20424;-88
2024/03/21 13:56:44;;;;;;;5.13;3.78;;;;;;;;;;5011238;28;20103;-85
2024/03/21 13:59:11;;;;;;;4.03;3.55;;;;;;;;;;5025347;28;20084;-88
2024/03/21 14:01:38;;;;;;;4.72;3.38;;;;;;;;;;5027022;28;20103;-85
2024/03/21 14:04:06;;;;;;;7.68;3.40;;;;;;;;;;5025902;28;20442;-87
2024/03/21 14:06:34;;;;;;;5.03;3.22;;;;;;;;;;5030922;28;20056;-86
2024/03/21 14:09:02;;;;;;;4.35;3.03;;;;;;;;;;5026339;28;20049;-87
2024/03/21 14:11:30;;;;;;;4.95;2.83;;;;;;;;;;5027347;28;20049;-91
2024/03/21 14:13:57;;;;;;;4.45;2.90;;;;;;;;;;5029077;28;20155;-89
2024/03/21 14:16:25;;;;;;;4.15;1.98;;;;;;;;;;5029965;28;20049;-88
2024/03/21 14:18:52;;;;;;;3.78;2.03;;;;;;;;;;5031280;28;20065;-88
2024/03/21 14:21:19;;;;;;;3.75;2.17;;;;;;;;;;5032220;28;20457;-91
2024/03/21 14:23:46;;;;;;;3.05;2.00;;;;;;;;;;5030525;28;20057;-87
2024/03/21 14:26:18;;;;;;;3.20;2.13;;;;;;;;;;5032199;28;20386;-91
2024/03/21 14:28:44;;;;;;;3.28;1.98;;;;;;;;;;5041248;28;20406;-91
2024/03/21 14:31:12;;;;;;;5.90;2.47;;;;;;;;;;5033919;28;20053;-92
2024/03/21 14:33:39;;;;;;;4.43;2.70;;;;;;;;;;5033703;28;20045;-89
2024/03/21 14:36:09;;;;;;;3.85;2.45;;;;;;;;;;5019372;28;20125;-90
2024/03/21 14:38:36;;;;;;;4.40;2.40;;;;;;;;;;5031596;28;20054;-90
2024/03/21 14:41:04;;;;;;;3.83;2.10;;;;;;;;;;5030773;28;20095;-91
2024/03/21 14:43:32;;;;;;;3.30;1.98;;;;;;;;;;5028571;28;20072;-91
2024/03/21 14:45:59;;;;;;;5.38;2.00;;;;;;;;;;5022473;28;20111;-91
2024/03/21 14:48:26;;;;;;;3.67;2.20;;;;;;;;;;5027374;28;20046;-91
2024/03/21 14:50:55;;;;;;;3.28;2.03;;;;;;;;;;5028883;28;20053;-91